createdAt,value
2023-03-10T00:01:20.883Z,13.22
2023-03-10T00:03:50.946Z,13.16
2023-03-10T00:06:22.370Z,13.11
2023-03-10T00:08:50.671Z,13.11
2023-03-10T00:11:19.562Z,13.17
2023-03-10T00:13:47.892Z,13.16
2023-03-10T00:16:20.917Z,13.12
2023-03-10T00:18:50.829Z,13.10
2023-03-10T00:21:21.836Z,13.15
2023-03-10T00:23:49.967Z,12.96
2023-03-10T00:26:21.386Z,12.96
2023-03-10T00:28:51.074Z,13.03
2023-03-10T00:31:21.687Z,13.03
2023-03-10T00:33:52.783Z,13.04
2023-03-10T00:36:24.019Z,13.09
2023-03-10T00:38:53.576Z,13.09
2023-03-10T00:41:24.621Z,13.02
2023-03-10T00:43:52.862Z,13.05
2023-03-10T00:46:21.450Z,13.03
2023-03-10T00:48:50.996Z,12.97
2023-03-10T00:51:20.410Z,12.95
2023-03-10T00:53:49.554Z,12.92
2023-03-10T00:56:21.308Z,12.92
2023-03-10T00:58:54.042Z,12.85
2023-03-10T01:01:25.476Z,12.82
2023-03-10T01:03:57.599Z,12.75
2023-03-10T01:06:26.781Z,12.80
2023-03-10T01:08:55.402Z,12.80
2023-03-10T01:11:27.525Z,12.80
2023-03-10T01:13:58.264Z,12.79
2023-03-10T01:16:27.547Z,12.79
2023-03-10T01:18:58.728Z,12.70
2023-03-10T01:21:31.774Z,12.69
2023-03-10T01:24:00.850Z,12.65
2023-03-10T01:26:30.087Z,12.71
2023-03-10T01:28:58.237Z,12.61
2023-03-10T01:31:26.554Z,12.64
2023-03-10T01:33:54.988Z,12.68
2023-03-10T01:36:27.594Z,12.48
2023-03-10T01:38:57.083Z,12.51
2023-03-10T01:41:25.819Z,12.59
2023-03-10T01:43:56.106Z,12.61
2023-03-10T01:46:46.736Z,12.60
2023-03-10T01:49:32.094Z,12.59
2023-03-10T01:52:08.096Z,12.64
2023-03-10T01:54:46.351Z,12.57
2023-03-10T01:57:16.752Z,12.57
2023-03-10T01:59:45.507Z,12.54
2023-03-10T02:02:14.064Z,12.52
2023-03-10T02:04:48.570Z,12.60
2023-03-10T02:07:28.868Z,12.67
2023-03-10T02:09:57.706Z,12.79
2023-03-10T02:12:26.164Z,12.59
2023-03-10T02:14:55.207Z,12.54
2023-03-10T02:17:28.394Z,12.54
2023-03-10T02:20:27.224Z,12.66
2023-03-10T02:22:57.002Z,12.71
2023-03-10T02:25:40.035Z,12.61
2023-03-10T02:28:09.898Z,12.56
2023-03-10T02:30:41.636Z,12.51
2023-03-10T02:33:14.713Z,12.52
2023-03-10T02:35:42.903Z,12.70
2023-03-10T02:38:14.970Z,12.51
2023-03-10T02:40:47.089Z,12.53
2023-03-10T02:43:31.493Z,12.57
2023-03-10T02:46:14.591Z,12.56
2023-03-10T02:48:44.868Z,12.63
2023-03-10T02:51:25.478Z,12.57
2023-03-10T02:53:55.006Z,12.65
2023-03-10T02:56:24.552Z,12.63
2023-03-10T02:58:54.238Z,12.59
2023-03-10T03:01:22.401Z,12.52
2023-03-10T03:03:50.680Z,12.54
2023-03-10T03:06:18.794Z,12.42
2023-03-10T03:08:47.528Z,12.46
2023-03-10T03:11:19.042Z,12.42
2023-03-10T03:13:47.322Z,12.51
2023-03-10T03:16:16.942Z,12.57
2023-03-10T03:18:46.863Z,12.55
2023-03-10T03:21:18.579Z,12.64
2023-03-10T03:23:48.691Z,12.58
2023-03-10T03:26:21.831Z,12.67
2023-03-10T03:28:52.202Z,12.63
2023-03-10T03:31:27.235Z,12.60
2023-03-10T03:34:16.826Z,12.60
2023-03-10T03:36:46.699Z,12.64
2023-03-10T03:39:17.828Z,12.74
2023-03-10T03:41:53.136Z,12.71
2023-03-10T03:44:21.926Z,12.68
2023-03-10T03:46:52.619Z,12.70
2023-03-10T03:49:21.945Z,12.67
2023-03-10T03:51:50.653Z,12.71
2023-03-10T03:54:19.213Z,12.69
2023-03-10T03:56:47.862Z,12.62
2023-03-10T03:59:17.314Z,12.58
2023-03-10T04:01:45.794Z,12.59
2023-03-10T04:04:16.465Z,12.54
2023-03-10T04:06:44.758Z,12.51
2023-03-10T04:09:13.751Z,12.50
2023-03-10T04:11:42.021Z,12.55
2023-03-10T04:14:10.384Z,12.57
2023-03-10T04:16:38.510Z,12.58
2023-03-10T04:19:08.032Z,12.51
2023-03-10T04:21:41.759Z,12.47
2023-03-10T04:24:10.278Z,12.40
2023-03-10T04:26:38.521Z,12.46
2023-03-10T04:29:07.103Z,12.46
2023-03-10T04:31:38.047Z,12.42
2023-03-10T04:34:08.059Z,12.44
2023-03-10T04:36:36.381Z,12.39
2023-03-10T04:39:07.459Z,12.41
2023-03-10T04:41:35.728Z,12.41
2023-03-10T04:44:04.028Z,12.41
2023-03-10T04:46:33.828Z,12.46
2023-03-10T04:49:03.209Z,12.46
2023-03-10T04:51:31.373Z,12.54
2023-03-10T04:54:00.279Z,12.45
2023-03-10T04:56:32.659Z,12.35
2023-03-10T04:59:00.770Z,12.43
2023-03-10T05:01:32.909Z,12.44
2023-03-10T05:04:05.775Z,12.43
2023-03-10T05:06:35.368Z,12.41
2023-03-10T05:09:10.315Z,12.29
2023-03-10T05:11:39.804Z,12.39
2023-03-10T05:14:07.845Z,12.32
2023-03-10T05:16:36.026Z,12.27
2023-03-10T05:19:04.311Z,12.36
2023-03-10T05:21:35.619Z,12.28
2023-03-10T05:24:05.753Z,12.26
2023-03-10T05:26:34.966Z,12.19
2023-03-10T05:29:05.100Z,12.09
2023-03-10T05:31:45.011Z,12.08
2023-03-10T05:34:19.157Z,12.20
2023-03-10T05:36:49.202Z,12.17
2023-03-10T05:39:18.407Z,12.24
2023-03-10T05:41:50.473Z,12.24
2023-03-10T05:44:20.142Z,12.24
2023-03-10T05:46:48.212Z,12.25
2023-03-10T05:49:16.749Z,12.29
2023-03-10T05:51:45.760Z,12.33
2023-03-10T05:54:16.172Z,12.30
2023-03-10T05:56:44.656Z,12.22
2023-03-10T05:59:12.697Z,12.19
2023-03-10T06:01:42.378Z,12.25
2023-03-10T06:04:13.417Z,12.32
2023-03-10T06:06:41.797Z,12.37
2023-03-10T06:09:09.884Z,12.31
2023-03-10T06:11:38.298Z,12.22
2023-03-10T06:14:06.925Z,12.29
2023-03-10T06:16:35.682Z,12.38
2023-03-10T06:19:05.150Z,12.49
2023-03-10T06:21:35.501Z,12.48
2023-03-10T06:24:04.092Z,12.48
2023-03-10T06:26:32.282Z,12.47
2023-03-10T06:29:00.402Z,12.48
2023-03-10T06:31:29.738Z,12.41
2023-03-10T06:33:59.031Z,12.38
2023-03-10T06:36:31.729Z,12.36
2023-03-10T06:39:00.137Z,12.23
2023-03-10T06:41:28.935Z,12.17
2023-03-10T06:43:57.021Z,12.21
2023-03-10T06:46:25.589Z,12.06
2023-03-10T06:48:53.727Z,12.15
2023-03-10T06:51:23.800Z,12.26
2023-03-10T06:53:55.066Z,12.29
2023-03-10T06:56:23.902Z,12.23
2023-03-10T06:58:52.260Z,12.25
2023-03-10T07:01:28.462Z,12.38
2023-03-10T07:03:57.318Z,12.39
2023-03-10T07:06:25.931Z,12.45
2023-03-10T07:08:55.996Z,12.46
2023-03-10T07:11:26.128Z,12.50
2023-03-10T07:13:54.891Z,12.63
2023-03-10T07:16:23.527Z,12.73
2023-03-10T07:18:51.832Z,12.89
2023-03-10T07:21:22.540Z,13.04
2023-03-10T07:23:50.809Z,13.09
2023-03-10T07:26:23.786Z,13.16
2023-03-10T07:28:54.248Z,13.25
2023-03-10T07:31:22.462Z,13.33
2023-03-10T07:33:50.910Z,13.36
2023-03-10T07:36:20.675Z,13.42
2023-03-10T07:38:49.036Z,13.43
2023-03-10T07:41:21.918Z,13.43
2023-03-10T07:43:54.272Z,13.35
2023-03-10T07:46:23.182Z,13.25
2023-03-10T07:48:52.644Z,13.19
2023-03-10T07:51:21.086Z,13.05
2023-03-10T07:53:49.216Z,12.97
2023-03-10T07:56:17.353Z,12.75
2023-03-10T07:58:47.002Z,12.67
2023-03-10T08:01:17.934Z,12.57
2023-03-10T08:03:46.931Z,12.73
2023-03-10T08:06:20.728Z,12.47
2023-03-10T08:08:49.187Z,12.55
2023-03-10T08:11:18.170Z,12.45
2023-03-10T08:13:48.389Z,12.00
2023-03-10T08:16:17.593Z,12.03
2023-03-10T08:18:46.318Z,12.02
2023-03-10T08:21:14.557Z,11.82
2023-03-10T08:23:42.795Z,11.91
2023-03-10T08:26:15.614Z,11.73
2023-03-10T08:28:44.350Z,11.67
2023-03-10T08:31:16.752Z,11.73
2023-03-10T08:33:45.905Z,11.79
2023-03-10T08:36:16.949Z,11.64
2023-03-10T08:38:46.229Z,11.61
2023-03-10T08:41:17.909Z,11.62
2023-03-10T08:43:49.109Z,11.69
2023-03-10T08:46:20.130Z,11.82
2023-03-10T08:48:48.729Z,11.85
2023-03-10T08:51:16.931Z,12.08
2023-03-10T08:53:47.588Z,12.38
2023-03-10T08:56:17.456Z,12.54
2023-03-10T08:58:45.782Z,12.73
2023-03-10T09:01:15.627Z,12.92
2023-03-10T09:03:46.562Z,13.09
2023-03-10T09:06:15.184Z,13.23
2023-03-10T09:08:44.112Z,13.35
2023-03-10T09:11:18.509Z,13.38
2023-03-10T09:13:46.738Z,13.36
2023-03-10T09:16:15.485Z,13.31
2023-03-10T09:18:45.806Z,13.33
2023-03-10T09:21:16.326Z,13.30
2023-03-10T09:23:47.128Z,13.19
2023-03-10T09:26:16.043Z,12.97
2023-03-10T09:28:44.930Z,13.00
2023-03-10T09:31:19.011Z,13.03
2023-03-10T09:33:49.207Z,12.84
2023-03-10T09:36:17.593Z,12.89
2023-03-10T09:38:45.973Z,12.75
2023-03-10T09:41:46.157Z,12.75
2023-03-10T09:44:32.446Z,12.79
2023-03-10T09:47:27.559Z,12.69
2023-03-10T09:50:17.814Z,12.70
2023-03-10T09:52:48.868Z,12.81
2023-03-10T09:55:23.699Z,12.85
2023-03-10T09:57:57.127Z,12.95
2023-03-10T10:00:30.773Z,12.93
2023-03-10T10:03:08.876Z,12.90
2023-03-10T10:05:43.073Z,12.88
2023-03-10T10:08:22.523Z,12.77
2023-03-10T10:10:54.840Z,12.79
2023-03-10T10:13:27.956Z,12.81
2023-03-10T10:16:21.382Z,12.81
2023-03-10T10:19:01.099Z,12.83
2023-03-10T10:21:43.353Z,12.84
2023-03-10T10:24:12.233Z,12.84
2023-03-10T10:26:40.260Z,12.85
2023-03-10T10:29:18.496Z,12.91
2023-03-10T10:32:06.572Z,12.87
2023-03-10T10:34:35.878Z,12.92
2023-03-10T10:37:29.767Z,12.59
2023-03-10T10:40:00.240Z,12.64
2023-03-10T10:42:31.052Z,12.47
2023-03-10T10:45:02.344Z,12.46
2023-03-10T10:47:33.292Z,12.51
2023-03-10T10:50:19.668Z,12.65
2023-03-10T10:52:52.962Z,12.49
2023-03-10T10:55:29.740Z,12.45
2023-03-10T10:58:01.888Z,12.51
2023-03-10T11:00:33.921Z,12.42
2023-03-10T11:03:02.463Z,12.47
2023-03-10T11:05:37.602Z,12.54
2023-03-10T11:08:37.528Z,12.48
2023-03-10T11:11:25.395Z,12.60
2023-03-10T11:14:16.080Z,12.65
2023-03-10T11:16:53.882Z,12.69
2023-03-10T11:19:33.018Z,12.64
2023-03-10T11:22:08.196Z,12.53
2023-03-10T11:24:47.762Z,12.73
2023-03-10T11:27:26.578Z,12.57
2023-03-10T11:30:06.058Z,12.59
2023-03-10T11:32:48.804Z,12.65
2023-03-10T11:35:27.272Z,12.63
2023-03-10T11:38:11.422Z,12.49
2023-03-10T11:40:47.811Z,12.42
2023-03-10T11:43:31.562Z,12.47
2023-03-10T11:46:08.111Z,12.50
2023-03-10T11:48:56.017Z,12.46
2023-03-10T11:51:33.649Z,12.36
2023-03-10T11:54:05.794Z,12.36
2023-03-10T11:56:35.255Z,12.26
2023-03-10T11:59:10.801Z,12.25
2023-03-10T12:01:43.228Z,12.27
2023-03-10T12:04:17.525Z,12.25
2023-03-10T12:06:52.132Z,12.42
2023-03-10T12:09:34.219Z,12.53
2023-03-10T12:12:06.245Z,12.54
2023-03-10T12:14:36.665Z,12.68
2023-03-10T12:17:06.402Z,12.70
2023-03-10T12:19:56.062Z,12.61
2023-03-10T12:22:26.081Z,12.64
2023-03-10T12:24:54.286Z,12.64
2023-03-10T12:27:23.869Z,12.82
2023-03-10T12:29:51.958Z,12.73
2023-03-10T12:32:47.310Z,12.52
2023-03-10T12:35:47.697Z,12.70
2023-03-10T12:38:53.908Z,12.56
2023-03-10T12:41:45.912Z,12.69
2023-03-10T12:44:55.775Z,12.80
2023-03-10T12:47:37.369Z,12.91
2023-03-10T12:50:22.673Z,12.86
2023-03-10T12:52:59.100Z,12.85
2023-03-10T12:55:29.081Z,12.73
2023-03-10T12:58:14.637Z,12.61
2023-03-10T13:00:51.468Z,12.70
2023-03-10T13:03:29.001Z,12.67
2023-03-10T13:06:03.833Z,12.58
2023-03-10T13:08:42.796Z,12.54
2023-03-10T13:11:31.696Z,12.50
2023-03-10T13:14:04.909Z,12.40
2023-03-10T13:16:36.568Z,12.39
2023-03-10T13:19:05.615Z,12.30
2023-03-10T13:21:36.053Z,12.27
2023-03-10T13:24:20.222Z,12.34
2023-03-10T13:26:48.381Z,12.23
2023-03-10T13:29:20.067Z,12.16
2023-03-10T13:31:56.341Z,12.23
2023-03-10T13:34:29.254Z,12.35
2023-03-10T13:37:05.373Z,12.30
2023-03-10T13:39:33.713Z,12.27
2023-03-10T13:42:04.038Z,12.28
2023-03-10T13:44:38.615Z,12.16
2023-03-10T13:47:18.336Z,12.10
2023-03-10T13:49:50.827Z,12.17
2023-03-10T13:52:22.469Z,12.32
2023-03-10T13:54:51.157Z,12.14
2023-03-10T13:57:26.257Z,12.12
2023-03-10T13:59:57.805Z,12.02
2023-03-10T14:02:31.672Z,12.23
2023-03-10T14:05:01.431Z,12.23
2023-03-10T14:07:32.883Z,12.29
2023-03-10T14:10:20.192Z,12.31
2023-03-10T14:12:51.708Z,12.24
2023-03-10T14:15:25.865Z,12.29
2023-03-10T14:18:20.422Z,12.20
2023-03-10T14:20:49.329Z,12.06
2023-03-10T14:23:32.379Z,12.06
2023-03-10T14:26:00.714Z,11.94
2023-03-10T14:28:32.341Z,11.97
2023-03-10T14:31:02.728Z,11.94
2023-03-10T14:33:32.262Z,11.93
2023-03-10T14:36:00.422Z,11.88
2023-03-10T14:38:28.856Z,11.81
2023-03-10T14:40:57.317Z,11.74
2023-03-10T14:43:28.696Z,11.65
2023-03-10T14:46:00.153Z,11.38
2023-03-10T14:48:35.436Z,11.42
2023-03-10T14:51:06.311Z,11.61
2023-03-10T14:53:34.797Z,11.62
2023-03-10T14:56:04.363Z,11.47
2023-03-10T14:58:35.604Z,11.50
2023-03-10T15:01:03.879Z,11.41
2023-03-10T15:03:33.378Z,11.48
2023-03-10T15:06:01.771Z,11.34
2023-03-10T15:08:30.839Z,11.31
2023-03-10T15:10:59.141Z,11.24
2023-03-10T15:13:27.215Z,11.26
2023-03-10T15:15:56.069Z,11.15
2023-03-10T15:18:26.969Z,11.01
2023-03-10T15:20:59.012Z,10.80
2023-03-10T15:23:28.268Z,10.84
2023-03-10T15:25:57.249Z,10.61
2023-03-10T15:28:25.561Z,10.61
2023-03-10T15:30:54.954Z,10.34
2023-03-10T15:33:23.184Z,10.42
2023-03-10T15:35:51.306Z,10.30
2023-03-10T15:38:21.052Z,10.11
2023-03-10T15:40:49.249Z,10.15
2023-03-10T15:43:17.330Z,10.05
2023-03-10T15:45:49.202Z,10.19
2023-03-10T15:48:18.318Z,10.10
2023-03-10T15:50:47.903Z,10.08
2023-03-10T15:53:16.160Z,9.97
2023-03-10T15:55:45.764Z,10.02
2023-03-10T15:58:13.912Z,10.15
2023-03-10T16:00:43.826Z,9.87
2023-03-10T16:03:12.267Z,10.05
2023-03-10T16:05:49.081Z,9.97
2023-03-10T16:08:18.987Z,9.91
2023-03-10T16:10:54.313Z,10.11
2023-03-10T16:13:23.773Z,10.14
2023-03-10T16:15:53.318Z,9.96
2023-03-10T16:18:25.748Z,10.04
2023-03-10T16:20:58.531Z,10.19
2023-03-10T16:23:27.377Z,10.00
2023-03-10T16:26:13.113Z,9.86
2023-03-10T16:28:44.349Z,9.74
2023-03-10T16:31:17.533Z,9.77
2023-03-10T16:33:47.975Z,9.85
2023-03-10T16:36:19.076Z,9.72
2023-03-10T16:38:47.664Z,9.57
2023-03-10T16:41:17.811Z,9.68
2023-03-10T16:43:46.397Z,9.55
2023-03-10T16:46:17.567Z,9.57
2023-03-10T16:48:48.524Z,9.26
2023-03-10T16:51:25.589Z,9.38
2023-03-10T16:53:56.204Z,9.20
2023-03-10T16:56:27.652Z,9.27
2023-03-10T16:58:56.795Z,9.40
2023-03-10T17:01:25.730Z,9.65
2023-03-10T17:03:54.919Z,9.60
2023-03-10T17:06:26.667Z,9.47
2023-03-10T17:08:56.249Z,9.37
2023-03-10T17:11:28.560Z,9.46
2023-03-10T17:14:00.060Z,9.24
2023-03-10T17:16:31.124Z,9.31
2023-03-10T17:19:01.549Z,9.05
2023-03-10T17:21:33.281Z,8.82
2023-03-10T17:24:01.454Z,9.05
2023-03-10T17:26:31.354Z,8.97
2023-03-10T17:28:59.561Z,8.92
2023-03-10T17:31:29.947Z,9.04
2023-03-10T17:34:00.434Z,9.05
2023-03-10T17:36:29.812Z,9.11
2023-03-10T17:39:00.740Z,8.99
2023-03-10T17:41:31.429Z,9.02
2023-03-10T17:43:59.907Z,9.10
2023-03-10T17:46:30.436Z,8.95
2023-03-10T17:49:00.275Z,9.05
2023-03-10T17:51:31.670Z,9.06
2023-03-10T17:54:03.039Z,9.07
2023-03-10T17:56:33.231Z,9.32
2023-03-10T17:59:01.547Z,9.26
2023-03-10T18:01:32.982Z,9.23
2023-03-10T18:04:02.356Z,9.06
2023-03-10T18:06:33.535Z,9.07
2023-03-10T18:09:05.550Z,8.96
2023-03-10T18:11:36.089Z,8.87
2023-03-10T18:14:04.779Z,8.92
2023-03-10T18:16:36.842Z,8.86
2023-03-10T18:19:05.449Z,8.80
2023-03-10T18:21:33.809Z,8.89
2023-03-10T18:24:02.310Z,8.84
2023-03-10T18:26:31.348Z,8.80
2023-03-10T18:29:01.510Z,8.82
2023-03-10T18:31:32.678Z,8.84
2023-03-10T18:34:03.010Z,8.57
2023-03-10T18:36:32.952Z,8.54
2023-03-10T18:39:02.377Z,8.72
2023-03-10T18:41:32.312Z,8.51
2023-03-10T18:44:02.013Z,7.97
2023-03-10T18:46:30.544Z,7.93
2023-03-10T18:48:58.850Z,7.76
2023-03-10T18:51:28.781Z,7.69
2023-03-10T18:53:57.135Z,7.84
2023-03-10T18:56:28.837Z,7.73
2023-03-10T18:58:58.064Z,7.73
2023-03-10T19:01:27.732Z,7.87
2023-03-10T19:03:55.917Z,8.09
2023-03-10T19:06:24.287Z,8.13
2023-03-10T19:08:53.674Z,8.09
2023-03-10T19:11:24.148Z,8.24
2023-03-10T19:13:52.906Z,8.25
2023-03-10T19:16:22.456Z,8.30
2023-03-10T19:18:51.992Z,8.25
2023-03-10T19:21:21.969Z,8.24
2023-03-10T19:23:51.176Z,8.30
2023-03-10T19:26:19.781Z,8.16
2023-03-10T19:28:47.910Z,8.24
2023-03-10T19:31:17.385Z,8.18
2023-03-10T19:33:45.766Z,8.03
2023-03-10T19:36:16.478Z,8.09
2023-03-10T19:38:46.230Z,8.17
2023-03-10T19:41:16.432Z,8.19
2023-03-10T19:43:45.547Z,8.16
2023-03-10T19:46:16.107Z,8.25
2023-03-10T19:48:44.918Z,8.25
2023-03-10T19:51:22.251Z,8.19
2023-03-10T19:53:52.809Z,8.18
2023-03-10T19:56:22.438Z,8.28
2023-03-10T19:58:51.230Z,8.35
2023-03-10T20:01:24.570Z,8.12
2023-03-10T20:03:53.370Z,8.07
2023-03-10T20:06:23.766Z,8.18
2023-03-10T20:08:52.597Z,7.96
2023-03-10T20:11:23.086Z,7.97
2023-03-10T20:13:54.840Z,8.06
2023-03-10T20:16:24.111Z,7.66
2023-03-10T20:18:53.240Z,7.50
2023-03-10T20:21:23.218Z,7.51
2023-03-10T20:23:51.550Z,7.43
2023-03-10T20:26:20.269Z,7.53
2023-03-10T20:28:50.604Z,7.63
2023-03-10T20:31:21.361Z,7.71
2023-03-10T20:33:50.430Z,7.78
2023-03-10T20:36:18.604Z,7.72
2023-03-10T20:38:48.841Z,7.65
2023-03-10T20:41:19.499Z,7.44
2023-03-10T20:43:49.099Z,7.24
2023-03-10T20:46:19.180Z,6.82
2023-03-10T20:48:49.651Z,6.79
2023-03-10T20:51:19.372Z,6.62
2023-03-10T20:53:49.007Z,6.76
2023-03-10T20:56:17.500Z,6.65
2023-03-10T20:58:45.693Z,6.60
2023-03-10T21:01:19.031Z,6.62
2023-03-10T21:06:20.711Z,6.26
2023-03-10T21:08:50.674Z,6.49
2023-03-10T21:11:19.984Z,6.61
2023-03-10T21:13:48.026Z,6.70
2023-03-10T21:16:16.125Z,6.66
2023-03-10T21:18:44.217Z,6.53
2023-03-10T21:21:13.822Z,6.66
2023-03-10T21:23:42.980Z,6.82
2023-03-10T21:26:14.598Z,6.95
2023-03-10T21:28:43.406Z,7.00
2023-03-10T21:31:12.113Z,7.00
2023-03-10T21:33:41.713Z,7.00
2023-03-10T21:36:14.661Z,6.92
2023-03-10T21:38:43.227Z,6.89
2023-03-10T21:41:15.344Z,7.07
2023-03-10T21:43:43.550Z,7.06
2023-03-10T21:46:12.233Z,7.19
2023-03-10T21:48:40.827Z,7.20
2023-03-10T21:51:09.958Z,7.08
2023-03-10T21:53:38.130Z,7.04
2023-03-10T21:56:07.586Z,7.12
2023-03-10T21:58:37.566Z,7.02
2023-03-10T22:01:07.681Z,6.86
2023-03-10T22:03:36.479Z,6.89
2023-03-10T22:06:05.127Z,6.87
2023-03-10T22:08:33.625Z,6.78
2023-03-10T22:11:02.247Z,6.95
2023-03-10T22:13:30.561Z,6.99
2023-03-10T22:16:00.939Z,7.07
2023-03-10T22:18:29.357Z,6.89
2023-03-10T22:20:57.685Z,7.08
2023-03-10T22:23:25.727Z,7.06
2023-03-10T22:25:53.841Z,7.08
2023-03-10T22:28:22.207Z,6.99
2023-03-10T22:30:50.374Z,6.95
2023-03-10T22:33:19.865Z,6.89
2023-03-10T22:35:52.029Z,6.89
2023-03-10T22:38:20.922Z,6.88
2023-03-10T22:40:49.497Z,6.89
2023-03-10T22:43:18.152Z,6.72
2023-03-10T22:45:46.725Z,6.73
2023-03-10T22:48:14.741Z,6.71
2023-03-10T22:50:46.622Z,6.73
2023-03-10T22:53:17.464Z,6.65
2023-03-10T22:55:46.491Z,6.62
2023-03-10T22:58:16.182Z,6.69
2023-03-10T23:00:46.240Z,6.39
2023-03-10T23:03:15.337Z,6.65
2023-03-10T23:05:45.234Z,6.62
2023-03-10T23:08:14.484Z,6.64
2023-03-10T23:10:43.508Z,6.73
2023-03-10T23:13:15.641Z,6.74
2023-03-10T23:15:44.835Z,6.82
2023-03-10T23:18:13.070Z,6.68
2023-03-10T23:20:47.811Z,6.89
2023-03-10T23:23:18.178Z,6.65
2023-03-10T23:25:50.875Z,6.72
2023-03-10T23:28:21.632Z,6.66
2023-03-10T23:30:51.291Z,6.67
2023-03-10T23:33:21.591Z,6.62
2023-03-10T23:35:54.102Z,6.46
2023-03-10T23:38:24.572Z,6.54
2023-03-10T23:40:53.586Z,6.38
2023-03-10T23:43:21.663Z,6.22
2023-03-10T23:45:49.965Z,6.33
2023-03-10T23:48:19.848Z,6.35
2023-03-10T23:50:50.285Z,6.33
2023-03-10T23:53:20.622Z,6.50
2023-03-10T23:55:49.218Z,6.33
2023-03-10T23:58:21.116Z,6.42
